Napas, Russia
Current Conditions -  °F | °C
As of 3:30 PM on Saturday 22 Nov 2014 (Local Time) from USNN Reporting Station
Clear Clear  
Wind Chill: -14°   Ceiling: Unl
Heat Index: -4°   Visibility: 6mi
Dew Point: -11°   Wind: 4mph
Humidity: 71%   Direction: 250°WSW
Pressure: 29.85"   Gusts: NA
Location:  59.85°N, 81.97°E
Report Text: USNN 220830Z 25002MPS CAVOK M20/M24 Q1011 NOSIG RMK QFE7532132//56
Loading
Personal Weather Stations






























Interactive Weather Map New forecast layout! Learn more

10-Day Weather Forecast

Advertisements
Track Severe Weather on mobile